sensor_id;sensor_type;location;lat;lon;timestamp;P1;durP1;ratioP1;P2;durP2;ratioP2
12385;SDS011;6257;57.634;18.310;2022-11-22T00:00:33;7.20;;;4.70;;
12385;SDS011;6257;57.634;18.310;2022-11-22T00:03:00;6.53;;;4.47;;
12385;SDS011;6257;57.634;18.310;2022-11-22T00:05:27;7.03;;;4.60;;
12385;SDS011;6257;57.634;18.310;2022-11-22T00:07:56;6.90;;;4.33;;
12385;SDS011;6257;57.634;18.310;2022-11-22T00:10:23;6.87;;;4.80;;
12385;SDS011;6257;57.634;18.310;2022-11-22T00:12:50;6.43;;;4.57;;
12385;SDS011;6257;57.634;18.310;2022-11-22T00:15:17;8.40;;;5.80;;
12385;SDS011;6257;57.634;18.310;2022-11-22T00:17:44;7.97;;;5.20;;
12385;SDS011;6257;57.634;18.310;2022-11-22T00:20:11;7.83;;;4.93;;
12385;SDS011;6257;57.634;18.310;2022-11-22T00:22:38;9.03;;;5.30;;
12385;SDS011;6257;57.634;18.310;2022-11-22T00:25:07;7.60;;;5.47;;
12385;SDS011;6257;57.634;18.310;2022-11-22T00:27:35;9.87;;;5.93;;
12385;SDS011;6257;57.634;18.310;2022-11-22T00:30:02;11.53;;;6.53;;
12385;SDS011;6257;57.634;18.310;2022-11-22T00:32:29;13.10;;;7.20;;
12385;SDS011;6257;57.634;18.310;2022-11-22T00:34:56;14.77;;;7.30;;
12385;SDS011;6257;57.634;18.310;2022-11-22T00:37:23;10.90;;;6.57;;
12385;SDS011;6257;57.634;18.310;2022-11-22T00:39:52;11.53;;;7.90;;
12385;SDS011;6257;57.634;18.310;2022-11-22T00:42:20;12.77;;;7.67;;
12385;SDS011;6257;57.634;18.310;2022-11-22T00:44:47;12.90;;;7.43;;
12385;SDS011;6257;57.634;18.310;2022-11-22T00:47:15;10.60;;;6.53;;
12385;SDS011;6257;57.634;18.310;2022-11-22T00:49:41;9.37;;;6.40;;
12385;SDS011;6257;57.634;18.310;2022-11-22T00:52:08;8.97;;;6.20;;
12385;SDS011;6257;57.634;18.310;2022-11-22T00:54:35;9.67;;;6.23;;
12385;SDS011;6257;57.634;18.310;2022-11-22T00:57:02;12.47;;;7.13;;
12385;SDS011;6257;57.634;18.310;2022-11-22T00:59:31;10.33;;;7.10;;
12385;SDS011;6257;57.634;18.310;2022-11-22T01:01:58;10.60;;;6.87;;
12385;SDS011;6257;57.634;18.310;2022-11-22T01:04:25;11.27;;;7.47;;
12385;SDS011;6257;57.634;18.310;2022-11-22T01:06:52;12.93;;;7.47;;
12385;SDS011;6257;57.634;18.310;2022-11-22T01:09:20;11.20;;;7.37;;
12385;SDS011;6257;57.634;18.310;2022-11-22T01:11:48;14.87;;;8.33;;
12385;SDS011;6257;57.634;18.310;2022-11-22T01:14:15;13.57;;;8.67;;
12385;SDS011;6257;57.634;18.310;2022-11-22T01:16:44;12.83;;;7.70;;
12385;SDS011;6257;57.634;18.310;2022-11-22T01:19:12;13.77;;;7.83;;
12385;SDS011;6257;57.634;18.310;2022-11-22T01:21:39;14.70;;;7.70;;
12385;SDS011;6257;57.634;18.310;2022-11-22T01:24:06;13.37;;;7.73;;
12385;SDS011;6257;57.634;18.310;2022-11-22T01:26:33;13.23;;;8.50;;
12385;SDS011;6257;57.634;18.310;2022-11-22T01:29:01;12.53;;;7.73;;
12385;SDS011;6257;57.634;18.310;2022-11-22T01:31:28;13.67;;;8.47;;
12385;SDS011;6257;57.634;18.310;2022-11-22T01:33:57;16.00;;;8.70;;
12385;SDS011;6257;57.634;18.310;2022-11-22T01:36:25;14.77;;;8.83;;
12385;SDS011;6257;57.634;18.310;2022-11-22T01:38:52;14.90;;;8.43;;
12385;SDS011;6257;57.634;18.310;2022-11-22T01:41:19;17.60;;;9.97;;
12385;SDS011;6257;57.634;18.310;2022-11-22T01:43:46;14.57;;;8.57;;
12385;SDS011;6257;57.634;18.310;2022-11-22T01:46:15;13.60;;;8.83;;
12385;SDS011;6257;57.634;18.310;2022-11-22T01:48:50;13.63;;;8.93;;
12385;SDS011;6257;57.634;18.310;2022-11-22T01:51:25;16.30;;;8.77;;
12385;SDS011;6257;57.634;18.310;2022-11-22T01:53:54;16.93;;;8.93;;
12385;SDS011;6257;57.634;18.310;2022-11-22T01:56:25;14.20;;;9.00;;
12385;SDS011;6257;57.634;18.310;2022-11-22T01:58:55;17.47;;;10.00;;
12385;SDS011;6257;57.634;18.310;2022-11-22T02:01:27;17.30;;;9.10;;
12385;SDS011;6257;57.634;18.310;2022-11-22T02:03:55;16.63;;;10.07;;
12385;SDS011;6257;57.634;18.310;2022-11-22T02:06:32;16.00;;;9.43;;
12385;SDS011;6257;57.634;18.310;2022-11-22T02:09:04;16.50;;;10.33;;
12385;SDS011;6257;57.634;18.310;2022-11-22T02:11:35;18.90;;;10.57;;
12385;SDS011;6257;57.634;18.310;2022-11-22T02:14:06;15.97;;;9.40;;
12385;SDS011;6257;57.634;18.310;2022-11-22T02:16:34;19.23;;;10.47;;
12385;SDS011;6257;57.634;18.310;2022-11-22T02:19:02;21.47;;;10.70;;
12385;SDS011;6257;57.634;18.310;2022-11-22T02:21:32;18.17;;;10.43;;
12385;SDS011;6257;57.634;18.310;2022-11-22T02:24:00;18.67;;;11.00;;
12385;SDS011;6257;57.634;18.310;2022-11-22T02:26:35;18.47;;;11.10;;
12385;SDS011;6257;57.634;18.310;2022-11-22T02:29:03;18.43;;;10.73;;
12385;SDS011;6257;57.634;18.310;2022-11-22T02:31:38;19.23;;;11.00;;
12385;SDS011;6257;57.634;18.310;2022-11-22T02:34:06;20.83;;;11.20;;
12385;SDS011;6257;57.634;18.310;2022-11-22T02:36:34;20.20;;;12.20;;
12385;SDS011;6257;57.634;18.310;2022-11-22T02:39:05;21.07;;;11.83;;
12385;SDS011;6257;57.634;18.310;2022-11-22T02:41:36;18.50;;;11.13;;
12385;SDS011;6257;57.634;18.310;2022-11-22T02:44:03;21.23;;;11.23;;
12385;SDS011;6257;57.634;18.310;2022-11-22T02:46:32;18.63;;;11.93;;
12385;SDS011;6257;57.634;18.310;2022-11-22T02:48:59;21.47;;;11.87;;
12385;SDS011;6257;57.634;18.310;2022-11-22T02:51:25;20.40;;;11.73;;
12385;SDS011;6257;57.634;18.310;2022-11-22T02:53:52;18.77;;;11.53;;
12385;SDS011;6257;57.634;18.310;2022-11-22T02:56:20;19.03;;;11.20;;
12385;SDS011;6257;57.634;18.310;2022-11-22T02:58:49;24.90;;;12.50;;
12385;SDS011;6257;57.634;18.310;2022-11-22T03:01:16;18.70;;;11.20;;
12385;SDS011;6257;57.634;18.310;2022-11-22T03:03:43;21.50;;;11.80;;
12385;SDS011;6257;57.634;18.310;2022-11-22T03:06:10;23.37;;;12.70;;
12385;SDS011;6257;57.634;18.310;2022-11-22T03:08:37;23.37;;;12.07;;
12385;SDS011;6257;57.634;18.310;2022-11-22T03:11:04;23.10;;;12.13;;
12385;SDS011;6257;57.634;18.310;2022-11-22T03:13:31;21.53;;;11.50;;
12385;SDS011;6257;57.634;18.310;2022-11-22T03:15:59;20.70;;;11.73;;
12385;SDS011;6257;57.634;18.310;2022-11-22T03:18:26;23.37;;;12.20;;
12385;SDS011;6257;57.634;18.310;2022-11-22T03:20:53;21.27;;;11.97;;
12385;SDS011;6257;57.634;18.310;2022-11-22T03:23:20;24.90;;;11.97;;
12385;SDS011;6257;57.634;18.310;2022-11-22T03:25:47;25.77;;;12.53;;
12385;SDS011;6257;57.634;18.310;2022-11-22T03:28:14;23.90;;;12.27;;
12385;SDS011;6257;57.634;18.310;2022-11-22T03:30:41;20.67;;;11.97;;
12385;SDS011;6257;57.634;18.310;2022-11-22T03:33:10;20.17;;;12.17;;
12385;SDS011;6257;57.634;18.310;2022-11-22T03:35:37;22.43;;;12.30;;
12385;SDS011;6257;57.634;18.310;2022-11-22T03:38:04;21.07;;;12.00;;
12385;SDS011;6257;57.634;18.310;2022-11-22T03:40:31;20.70;;;11.53;;
12385;SDS011;6257;57.634;18.310;2022-11-22T03:42:59;20.40;;;11.77;;
12385;SDS011;6257;57.634;18.310;2022-11-22T03:45:26;21.20;;;11.17;;
12385;SDS011;6257;57.634;18.310;2022-11-22T03:47:54;21.80;;;12.00;;
12385;SDS011;6257;57.634;18.310;2022-11-22T03:50:23;20.27;;;11.93;;
12385;SDS011;6257;57.634;18.310;2022-11-22T03:52:51;20.33;;;11.30;;
12385;SDS011;6257;57.634;18.310;2022-11-22T03:55:18;21.97;;;11.80;;
12385;SDS011;6257;57.634;18.310;2022-11-22T03:57:45;21.73;;;11.50;;
12385;SDS011;6257;57.634;18.310;2022-11-22T04:00:12;21.60;;;11.60;;
12385;SDS011;6257;57.634;18.310;2022-11-22T04:02:40;20.60;;;11.23;;
12385;SDS011;6257;57.634;18.310;2022-11-22T04:05:07;19.90;;;11.83;;
12385;SDS011;6257;57.634;18.310;2022-11-22T04:07:36;23.30;;;10.93;;
12385;SDS011;6257;57.634;18.310;2022-11-22T04:10:03;20.57;;;11.50;;
12385;SDS011;6257;57.634;18.310;2022-11-22T04:12:31;22.10;;;11.53;;
12385;SDS011;6257;57.634;18.310;2022-11-22T04:14:58;22.87;;;11.60;;
12385;SDS011;6257;57.634;18.310;2022-11-22T04:17:33;23.00;;;11.80;;
12385;SDS011;6257;57.634;18.310;2022-11-22T04:20:09;20.20;;;11.53;;
12385;SDS011;6257;57.634;18.310;2022-11-22T04:22:57;20.33;;;11.60;;
12385;SDS011;6257;57.634;18.310;2022-11-22T04:25:26;23.43;;;11.53;;
12385;SDS011;6257;57.634;18.310;2022-11-22T04:27:53;21.80;;;10.90;;
12385;SDS011;6257;57.634;18.310;2022-11-22T04:30:21;20.37;;;10.70;;
12385;SDS011;6257;57.634;18.310;2022-11-22T04:33:09;21.27;;;10.53;;
12385;SDS011;6257;57.634;18.310;2022-11-22T04:35:35;19.57;;;10.30;;
12385;SDS011;6257;57.634;18.310;2022-11-22T04:38:04;20.73;;;11.00;;
12385;SDS011;6257;57.634;18.310;2022-11-22T04:40:31;18.10;;;11.10;;
12385;SDS011;6257;57.634;18.310;2022-11-22T04:42:59;21.60;;;10.43;;
12385;SDS011;6257;57.634;18.310;2022-11-22T04:45:44;19.67;;;10.90;;
12385;SDS011;6257;57.634;18.310;2022-11-22T04:48:12;21.40;;;11.50;;
12385;SDS011;6257;57.634;18.310;2022-11-22T04:50:39;23.43;;;11.50;;
12385;SDS011;6257;57.634;18.310;2022-11-22T04:53:40;20.57;;;10.40;;
12385;SDS011;6257;57.634;18.310;2022-11-22T04:56:08;22.80;;;11.70;;
12385;SDS011;6257;57.634;18.310;2022-11-22T04:58:35;22.63;;;11.03;;
12385;SDS011;6257;57.634;18.310;2022-11-22T05:01:03;20.90;;;10.60;;
12385;SDS011;6257;57.634;18.310;2022-11-22T05:03:30;22.37;;;12.00;;
12385;SDS011;6257;57.634;18.310;2022-11-22T05:05:59;18.10;;;11.00;;
12385;SDS011;6257;57.634;18.310;2022-11-22T05:08:26;21.73;;;11.47;;
12385;SDS011;6257;57.634;18.310;2022-11-22T05:10:55;20.63;;;11.10;;
12385;SDS011;6257;57.634;18.310;2022-11-22T05:13:24;20.30;;;10.37;;
12385;SDS011;6257;57.634;18.310;2022-11-22T05:15:53;20.63;;;11.17;;
12385;SDS011;6257;57.634;18.310;2022-11-22T05:18:20;20.77;;;10.40;;
12385;SDS011;6257;57.634;18.310;2022-11-22T05:20:48;18.63;;;11.17;;
12385;SDS011;6257;57.634;18.310;2022-11-22T05:23:16;22.90;;;10.50;;
12385;SDS011;6257;57.634;18.310;2022-11-22T05:26:02;20.23;;;10.47;;
12385;SDS011;6257;57.634;18.310;2022-11-22T05:28:30;21.07;;;11.20;;
12385;SDS011;6257;57.634;18.310;2022-11-22T05:30:59;19.37;;;10.87;;
12385;SDS011;6257;57.634;18.310;2022-11-22T05:33:32;20.47;;;10.37;;
12385;SDS011;6257;57.634;18.310;2022-11-22T05:36:00;21.73;;;11.23;;
12385;SDS011;6257;57.634;18.310;2022-11-22T05:38:27;22.03;;;11.03;;
12385;SDS011;6257;57.634;18.310;2022-11-22T05:40:54;19.77;;;10.90;;
12385;SDS011;6257;57.634;18.310;2022-11-22T05:43:23;19.70;;;10.47;;
12385;SDS011;6257;57.634;18.310;2022-11-22T05:45:50;22.30;;;11.27;;
12385;SDS011;6257;57.634;18.310;2022-11-22T05:48:17;22.70;;;10.70;;
12385;SDS011;6257;57.634;18.310;2022-11-22T05:50:44;21.53;;;11.07;;
12385;SDS011;6257;57.634;18.310;2022-11-22T05:53:11;23.23;;;11.87;;
12385;SDS011;6257;57.634;18.310;2022-11-22T05:55:38;21.70;;;11.10;;
12385;SDS011;6257;57.634;18.310;2022-11-22T05:58:05;19.63;;;11.50;;
12385;SDS011;6257;57.634;18.310;2022-11-22T06:00:34;23.67;;;11.70;;
12385;SDS011;6257;57.634;18.310;2022-11-22T06:03:01;21.13;;;11.53;;
12385;SDS011;6257;57.634;18.310;2022-11-22T06:05:29;25.33;;;11.73;;
12385;SDS011;6257;57.634;18.310;2022-11-22T06:07:57;22.07;;;11.60;;
12385;SDS011;6257;57.634;18.310;2022-11-22T06:10:26;22.17;;;11.27;;
12385;SDS011;6257;57.634;18.310;2022-11-22T06:12:54;23.73;;;11.60;;
12385;SDS011;6257;57.634;18.310;2022-11-22T06:15:21;20.67;;;11.10;;
12385;SDS011;6257;57.634;18.310;2022-11-22T06:17:49;22.93;;;11.43;;
12385;SDS011;6257;57.634;18.310;2022-11-22T06:20:16;18.83;;;11.30;;
12385;SDS011;6257;57.634;18.310;2022-11-22T06:22:43;25.13;;;11.53;;
12385;SDS011;6257;57.634;18.310;2022-11-22T06:25:10;25.03;;;11.00;;
12385;SDS011;6257;57.634;18.310;2022-11-22T06:27:38;23.27;;;11.77;;
12385;SDS011;6257;57.634;18.310;2022-11-22T06:30:05;24.23;;;11.53;;
12385;SDS011;6257;57.634;18.310;2022-11-22T06:32:34;20.33;;;11.33;;
12385;SDS011;6257;57.634;18.310;2022-11-22T06:35:02;21.50;;;11.23;;
12385;SDS011;6257;57.634;18.310;2022-11-22T06:37:30;19.50;;;11.27;;
12385;SDS011;6257;57.634;18.310;2022-11-22T06:39:57;21.17;;;10.83;;
12385;SDS011;6257;57.634;18.310;2022-11-22T06:42:24;21.97;;;11.20;;
12385;SDS011;6257;57.634;18.310;2022-11-22T06:44:51;22.07;;;11.70;;
12385;SDS011;6257;57.634;18.310;2022-11-22T06:47:18;21.27;;;11.50;;
12385;SDS011;6257;57.634;18.310;2022-11-22T06:49:45;23.07;;;11.53;;
12385;SDS011;6257;57.634;18.310;2022-11-22T06:52:14;21.77;;;11.97;;
12385;SDS011;6257;57.634;18.310;2022-11-22T06:54:41;26.03;;;11.93;;
12385;SDS011;6257;57.634;18.310;2022-11-22T06:57:11;25.53;;;12.90;;
12385;SDS011;6257;57.634;18.310;2022-11-22T06:59:39;26.00;;;12.87;;
12385;SDS011;6257;57.634;18.310;2022-11-22T07:02:07;27.60;;;13.70;;
12385;SDS011;6257;57.634;18.310;2022-11-22T07:04:37;22.47;;;11.97;;
12385;SDS011;6257;57.634;18.310;2022-11-22T07:07:04;27.27;;;12.23;;
12385;SDS011;6257;57.634;18.310;2022-11-22T07:09:33;24.73;;;11.77;;
12385;SDS011;6257;57.634;18.310;2022-11-22T07:12:02;23.60;;;13.07;;
12385;SDS011;6257;57.634;18.310;2022-11-22T07:14:29;23.27;;;13.03;;
12385;SDS011;6257;57.634;18.310;2022-11-22T07:16:56;26.10;;;13.47;;
12385;SDS011;6257;57.634;18.310;2022-11-22T07:19:23;25.50;;;13.20;;
12385;SDS011;6257;57.634;18.310;2022-11-22T07:21:50;22.20;;;11.87;;
12385;SDS011;6257;57.634;18.310;2022-11-22T07:24:17;23.20;;;11.80;;
12385;SDS011;6257;57.634;18.310;2022-11-22T07:26:45;22.47;;;11.10;;
12385;SDS011;6257;57.634;18.310;2022-11-22T07:29:12;21.93;;;12.63;;
12385;SDS011;6257;57.634;18.310;2022-11-22T07:31:40;21.77;;;11.17;;
12385;SDS011;6257;57.634;18.310;2022-11-22T07:34:10;22.67;;;10.40;;
12385;SDS011;6257;57.634;18.310;2022-11-22T07:36:37;22.77;;;11.37;;
12385;SDS011;6257;57.634;18.310;2022-11-22T07:39:04;21.37;;;11.87;;
12385;SDS011;6257;57.634;18.310;2022-11-22T07:41:31;20.07;;;11.53;;
12385;SDS011;6257;57.634;18.310;2022-11-22T07:43:59;19.50;;;10.53;;
12385;SDS011;6257;57.634;18.310;2022-11-22T07:46:27;19.63;;;11.43;;
12385;SDS011;6257;57.634;18.310;2022-11-22T07:48:57;20.93;;;11.10;;
12385;SDS011;6257;57.634;18.310;2022-11-22T07:51:25;19.73;;;11.17;;
12385;SDS011;6257;57.634;18.310;2022-11-22T07:53:52;22.13;;;10.90;;
12385;SDS011;6257;57.634;18.310;2022-11-22T07:56:21;20.63;;;10.73;;
12385;SDS011;6257;57.634;18.310;2022-11-22T07:58:49;23.10;;;11.57;;
12385;SDS011;6257;57.634;18.310;2022-11-22T08:01:17;24.90;;;11.37;;
12385;SDS011;6257;57.634;18.310;2022-11-22T08:03:45;22.90;;;11.03;;
12385;SDS011;6257;57.634;18.310;2022-11-22T08:06:13;22.87;;;11.70;;
12385;SDS011;6257;57.634;18.310;2022-11-22T08:08:40;22.17;;;10.20;;
12385;SDS011;6257;57.634;18.310;2022-11-22T08:11:08;23.20;;;10.93;;
12385;SDS011;6257;57.634;18.310;2022-11-22T08:13:36;21.17;;;11.03;;
12385;SDS011;6257;57.634;18.310;2022-11-22T08:16:04;21.63;;;10.73;;
12385;SDS011;6257;57.634;18.310;2022-11-22T08:18:36;22.57;;;10.60;;
12385;SDS011;6257;57.634;18.310;2022-11-22T08:21:04;19.53;;;10.73;;
12385;SDS011;6257;57.634;18.310;2022-11-22T08:23:33;21.47;;;10.57;;
12385;SDS011;6257;57.634;18.310;2022-11-22T08:26:00;22.43;;;10.33;;
12385;SDS011;6257;57.634;18.310;2022-11-22T08:28:27;22.57;;;10.63;;
12385;SDS011;6257;57.634;18.310;2022-11-22T08:30:58;22.60;;;10.93;;
12385;SDS011;6257;57.634;18.310;2022-11-22T08:33:26;22.53;;;10.90;;
12385;SDS011;6257;57.634;18.310;2022-11-22T08:35:55;23.37;;;10.53;;
12385;SDS011;6257;57.634;18.310;2022-11-22T08:38:22;20.60;;;10.20;;
12385;SDS011;6257;57.634;18.310;2022-11-22T08:40:49;21.70;;;11.20;;
12385;SDS011;6257;57.634;18.310;2022-11-22T08:43:16;21.83;;;10.70;;
12385;SDS011;6257;57.634;18.310;2022-11-22T08:45:44;23.30;;;11.07;;
12385;SDS011;6257;57.634;18.310;2022-11-22T08:48:11;22.30;;;11.20;;
12385;SDS011;6257;57.634;18.310;2022-11-22T08:50:38;23.23;;;11.17;;
12385;SDS011;6257;57.634;18.310;2022-11-22T08:53:06;22.40;;;12.00;;
12385;SDS011;6257;57.634;18.310;2022-11-22T08:55:33;20.23;;;11.33;;
12385;SDS011;6257;57.634;18.310;2022-11-22T08:58:00;22.23;;;11.17;;
12385;SDS011;6257;57.634;18.310;2022-11-22T09:00:27;20.57;;;10.17;;
12385;SDS011;6257;57.634;18.310;2022-11-22T09:02:54;22.23;;;11.43;;
12385;SDS011;6257;57.634;18.310;2022-11-22T09:05:21;18.40;;;9.93;;
12385;SDS011;6257;57.634;18.310;2022-11-22T09:07:48;27.60;;;11.80;;
12385;SDS011;6257;57.634;18.310;2022-11-22T09:10:17;25.33;;;12.37;;
12385;SDS011;6257;57.634;18.310;2022-11-22T09:12:44;21.93;;;10.30;;
12385;SDS011;6257;57.634;18.310;2022-11-22T09:15:11;22.33;;;10.80;;
12385;SDS011;6257;57.634;18.310;2022-11-22T09:17:39;23.03;;;11.40;;
12385;SDS011;6257;57.634;18.310;2022-11-22T09:20:08;25.07;;;11.57;;
12385;SDS011;6257;57.634;18.310;2022-11-22T09:22:36;23.53;;;10.90;;
12385;SDS011;6257;57.634;18.310;2022-11-22T09:25:04;22.00;;;10.93;;
12385;SDS011;6257;57.634;18.310;2022-11-22T09:27:33;19.80;;;10.07;;
12385;SDS011;6257;57.634;18.310;2022-11-22T09:30:00;21.47;;;10.30;;
12385;SDS011;6257;57.634;18.310;2022-11-22T09:32:27;22.97;;;11.00;;
12385;SDS011;6257;57.634;18.310;2022-11-22T09:34:54;21.57;;;10.73;;
12385;SDS011;6257;57.634;18.310;2022-11-22T09:37:21;20.57;;;10.57;;
12385;SDS011;6257;57.634;18.310;2022-11-22T09:39:48;21.33;;;11.97;;
12385;SDS011;6257;57.634;18.310;2022-11-22T09:51:05;21.97;;;10.23;;
12385;SDS011;6257;57.634;18.310;2022-11-22T09:53:37;20.37;;;10.20;;
12385;SDS011;6257;57.634;18.310;2022-11-22T09:56:09;19.27;;;11.30;;
12385;SDS011;6257;57.634;18.310;2022-11-22T09:58:40;19.53;;;10.33;;
12385;SDS011;6257;57.634;18.310;2022-11-22T10:01:12;18.27;;;10.50;;
12385;SDS011;6257;57.634;18.310;2022-11-22T10:03:44;20.17;;;10.33;;
12385;SDS011;6257;57.634;18.310;2022-11-22T10:06:18;25.73;;;11.23;;
12385;SDS011;6257;57.634;18.310;2022-11-22T10:09:03;18.10;;;9.90;;
12385;SDS011;6257;57.634;18.310;2022-11-22T10:11:37;20.50;;;10.90;;
12385;SDS011;6257;57.634;18.310;2022-11-22T10:14:12;21.20;;;11.03;;
12385;SDS011;6257;57.634;18.310;2022-11-22T10:16:49;19.33;;;10.60;;
12385;SDS011;6257;57.634;18.310;2022-11-22T10:19:22;20.13;;;11.03;;
12385;SDS011;6257;57.634;18.310;2022-11-22T10:21:54;22.53;;;11.23;;
12385;SDS011;6257;57.634;18.310;2022-11-22T10:24:21;19.07;;;9.90;;
12385;SDS011;6257;57.634;18.310;2022-11-22T10:26:48;17.10;;;10.33;;
12385;SDS011;6257;57.634;18.310;2022-11-22T10:29:18;19.80;;;10.43;;
12385;SDS011;6257;57.634;18.310;2022-11-22T10:31:53;18.90;;;10.47;;
12385;SDS011;6257;57.634;18.310;2022-11-22T10:34:31;19.67;;;10.13;;
12385;SDS011;6257;57.634;18.310;2022-11-22T10:37:08;24.10;;;10.80;;
12385;SDS011;6257;57.634;18.310;2022-11-22T10:39:47;21.97;;;10.93;;
12385;SDS011;6257;57.634;18.310;2022-11-22T10:42:31;21.57;;;11.13;;
12385;SDS011;6257;57.634;18.310;2022-11-22T10:45:11;22.40;;;11.17;;
12385;SDS011;6257;57.634;18.310;2022-11-22T10:47:47;22.20;;;11.73;;
12385;SDS011;6257;57.634;18.310;2022-11-22T10:50:22;18.77;;;10.77;;
12385;SDS011;6257;57.634;18.310;2022-11-22T10:52:56;18.73;;;10.10;;
12385;SDS011;6257;57.634;18.310;2022-11-22T10:55:36;23.03;;;11.97;;
12385;SDS011;6257;57.634;18.310;2022-11-22T10:58:13;21.97;;;11.13;;
12385;SDS011;6257;57.634;18.310;2022-11-22T11:00:54;18.50;;;10.33;;
12385;SDS011;6257;57.634;18.310;2022-11-22T11:03:26;18.53;;;10.40;;
12385;SDS011;6257;57.634;18.310;2022-11-22T11:05:57;20.13;;;10.53;;
12385;SDS011;6257;57.634;18.310;2022-11-22T11:08:33;23.27;;;11.23;;
12385;SDS011;6257;57.634;18.310;2022-11-22T11:11:04;21.67;;;11.20;;
12385;SDS011;6257;57.634;18.310;2022-11-22T11:13:32;18.87;;;10.60;;
12385;SDS011;6257;57.634;18.310;2022-11-22T11:16:05;19.27;;;10.37;;
12385;SDS011;6257;57.634;18.310;2022-11-22T11:18:37;21.20;;;11.13;;
12385;SDS011;6257;57.634;18.310;2022-11-22T11:21:10;18.80;;;11.33;;
12385;SDS011;6257;57.634;18.310;2022-11-22T11:23:38;17.13;;;9.67;;
12385;SDS011;6257;57.634;18.310;2022-11-22T11:26:17;21.13;;;10.93;;
12385;SDS011;6257;57.634;18.310;2022-11-22T11:28:50;19.00;;;11.10;;
12385;SDS011;6257;57.634;18.310;2022-11-22T11:32:05;22.53;;;10.77;;
12385;SDS011;6257;57.634;18.310;2022-11-22T11:34:34;19.57;;;9.73;;
12385;SDS011;6257;57.634;18.310;2022-11-22T11:37:03;19.67;;;10.87;;
12385;SDS011;6257;57.634;18.310;2022-11-22T11:39:31;21.50;;;11.67;;
12385;SDS011;6257;57.634;18.310;2022-11-22T11:42:00;25.37;;;12.70;;
12385;SDS011;6257;57.634;18.310;2022-11-22T11:44:45;22.27;;;11.90;;
12385;SDS011;6257;57.634;18.310;2022-11-22T11:47:18;23.70;;;12.70;;
12385;SDS011;6257;57.634;18.310;2022-11-22T11:49:56;24.40;;;12.07;;
12385;SDS011;6257;57.634;18.310;2022-11-22T11:52:23;22.33;;;11.50;;
12385;SDS011;6257;57.634;18.310;2022-11-22T11:54:53;18.80;;;10.53;;
12385;SDS011;6257;57.634;18.310;2022-11-22T11:57:24;19.57;;;11.43;;
12385;SDS011;6257;57.634;18.310;2022-11-22T11:59:54;20.50;;;11.40;;
12385;SDS011;6257;57.634;18.310;2022-11-22T12:02:26;21.20;;;11.40;;
12385;SDS011;6257;57.634;18.310;2022-11-22T12:05:00;21.33;;;11.97;;
12385;SDS011;6257;57.634;18.310;2022-11-22T12:07:37;20.87;;;12.13;;
12385;SDS011;6257;57.634;18.310;2022-11-22T12:12:53;20.87;;;10.17;;
12385;SDS011;6257;57.634;18.310;2022-11-22T12:15:27;17.77;;;9.80;;
12385;SDS011;6257;57.634;18.310;2022-11-22T12:18:17;19.40;;;10.53;;
12385;SDS011;6257;57.634;18.310;2022-11-22T12:21:02;16.70;;;10.13;;
12385;SDS011;6257;57.634;18.310;2022-11-22T12:23:39;16.73;;;10.33;;
12385;SDS011;6257;57.634;18.310;2022-11-22T12:26:13;17.17;;;10.90;;
12385;SDS011;6257;57.634;18.310;2022-11-22T12:28:40;18.77;;;10.90;;
12385;SDS011;6257;57.634;18.310;2022-11-22T12:31:11;18.50;;;10.80;;
12385;SDS011;6257;57.634;18.310;2022-11-22T12:33:49;19.83;;;11.10;;
12385;SDS011;6257;57.634;18.310;2022-11-22T12:36:19;17.43;;;10.87;;
12385;SDS011;6257;57.634;18.310;2022-11-22T12:38:50;22.73;;;10.83;;
12385;SDS011;6257;57.634;18.310;2022-11-22T12:41:19;16.87;;;10.27;;
12385;SDS011;6257;57.634;18.310;2022-11-22T12:43:50;16.63;;;9.70;;
12385;SDS011;6257;57.634;18.310;2022-11-22T12:46:21;19.17;;;10.13;;
12385;SDS011;6257;57.634;18.310;2022-11-22T12:48:55;14.87;;;8.90;;
12385;SDS011;6257;57.634;18.310;2022-11-22T12:51:26;14.83;;;9.27;;
12385;SDS011;6257;57.634;18.310;2022-11-22T12:54:03;16.90;;;9.37;;
12385;SDS011;6257;57.634;18.310;2022-11-22T12:56:36;17.33;;;10.23;;
12385;SDS011;6257;57.634;18.310;2022-11-22T12:59:14;16.20;;;9.63;;
12385;SDS011;6257;57.634;18.310;2022-11-22T13:01:47;16.43;;;8.97;;
12385;SDS011;6257;57.634;18.310;2022-11-22T13:04:24;15.77;;;8.67;;
12385;SDS011;6257;57.634;18.310;2022-11-22T13:06:57;19.13;;;9.83;;
12385;SDS011;6257;57.634;18.310;2022-11-22T13:09:31;18.67;;;10.57;;
12385;SDS011;6257;57.634;18.310;2022-11-22T13:12:02;18.57;;;10.17;;
12385;SDS011;6257;57.634;18.310;2022-11-22T13:14:32;16.60;;;10.37;;
12385;SDS011;6257;57.634;18.310;2022-11-22T13:17:06;16.23;;;10.07;;
12385;SDS011;6257;57.634;18.310;2022-11-22T13:19:38;16.57;;;9.47;;
12385;SDS011;6257;57.634;18.310;2022-11-22T13:22:09;16.67;;;9.67;;
12385;SDS011;6257;57.634;18.310;2022-11-22T13:24:48;17.07;;;9.67;;
12385;SDS011;6257;57.634;18.310;2022-11-22T13:27:26;16.03;;;10.00;;
12385;SDS011;6257;57.634;18.310;2022-11-22T13:29:58;13.93;;;8.00;;
12385;SDS011;6257;57.634;18.310;2022-11-22T13:32:27;17.00;;;9.13;;
12385;SDS011;6257;57.634;18.310;2022-11-22T13:35:16;14.07;;;8.87;;
12385;SDS011;6257;57.634;18.310;2022-11-22T13:37:51;15.43;;;9.30;;
12385;SDS011;6257;57.634;18.310;2022-11-22T13:40:23;18.63;;;10.33;;
12385;SDS011;6257;57.634;18.310;2022-11-22T13:45:53;17.07;;;9.53;;
12385;SDS011;6257;57.634;18.310;2022-11-22T13:57:32;16.33;;;9.00;;
12385;SDS011;6257;57.634;18.310;2022-11-22T14:03:19;15.20;;;8.70;;
12385;SDS011;6257;57.634;18.310;2022-11-22T14:05:49;17.37;;;9.57;;
12385;SDS011;6257;57.634;18.310;2022-11-22T14:08:26;15.10;;;9.03;;
12385;SDS011;6257;57.634;18.310;2022-11-22T14:11:06;16.27;;;8.87;;
12385;SDS011;6257;57.634;18.310;2022-11-22T14:13:39;14.83;;;8.67;;
12385;SDS011;6257;57.634;18.310;2022-11-22T14:16:25;14.03;;;8.57;;
12385;SDS011;6257;57.634;18.310;2022-11-22T14:19:02;13.63;;;8.83;;
12385;SDS011;6257;57.634;18.310;2022-11-22T14:21:46;13.40;;;8.30;;
12385;SDS011;6257;57.634;18.310;2022-11-22T14:24:20;13.57;;;7.97;;
12385;SDS011;6257;57.634;18.310;2022-11-22T14:27:01;14.17;;;8.67;;
12385;SDS011;6257;57.634;18.310;2022-11-22T14:29:54;12.63;;;8.43;;
12385;SDS011;6257;57.634;18.310;2022-11-22T14:35:28;13.07;;;8.07;;
12385;SDS011;6257;57.634;18.310;2022-11-22T14:37:59;13.27;;;7.83;;
12385;SDS011;6257;57.634;18.310;2022-11-22T14:40:41;12.97;;;8.03;;
12385;SDS011;6257;57.634;18.310;2022-11-22T14:43:22;14.57;;;8.00;;
12385;SDS011;6257;57.634;18.310;2022-11-22T14:45:54;14.00;;;8.23;;
12385;SDS011;6257;57.634;18.310;2022-11-22T14:48:25;10.73;;;7.90;;
12385;SDS011;6257;57.634;18.310;2022-11-22T14:50:59;15.13;;;8.80;;
12385;SDS011;6257;57.634;18.310;2022-11-22T14:53:33;12.73;;;8.23;;
12385;SDS011;6257;57.634;18.310;2022-11-22T14:56:05;14.63;;;9.20;;
12385;SDS011;6257;57.634;18.310;2022-11-22T14:58:42;14.53;;;8.60;;
12385;SDS011;6257;57.634;18.310;2022-11-22T15:01:34;13.73;;;8.17;;
12385;SDS011;6257;57.634;18.310;2022-11-22T15:04:27;13.33;;;8.10;;
12385;SDS011;6257;57.634;18.310;2022-11-22T15:07:29;12.67;;;8.03;;
12385;SDS011;6257;57.634;18.310;2022-11-22T15:10:14;13.37;;;7.67;;
12385;SDS011;6257;57.634;18.310;2022-11-22T15:13:04;12.90;;;8.20;;
12385;SDS011;6257;57.634;18.310;2022-11-22T15:15:42;11.50;;;7.57;;